createdAt,value
2022-09-06T00:00:54.271Z,13.18
2022-09-06T00:01:55.830Z,13.17
2022-09-06T00:02:57.531Z,13.15
2022-09-06T00:03:59.177Z,13.15
2022-09-06T00:05:01.352Z,13.13
2022-09-06T00:06:10.560Z,13.13
2022-09-06T00:07:12.950Z,13.12
2022-09-06T00:08:17.166Z,13.11
2022-09-06T00:09:18.619Z,13.08
2022-09-06T00:10:20.532Z,13.05
2022-09-06T00:11:22.121Z,13.04
2022-09-06T00:12:24.021Z,13.01
2022-09-06T00:13:25.813Z,12.99
2022-09-06T00:14:27.355Z,12.98
2022-09-06T00:15:29.165Z,12.97
2022-09-06T00:16:30.816Z,12.96
2022-09-06T00:17:32.889Z,12.93
2022-09-06T00:18:34.443Z,12.95
2022-09-06T00:19:36.046Z,12.94
2022-09-06T00:20:40.818Z,12.95
2022-09-06T00:21:42.276Z,12.94
2022-09-06T00:22:43.796Z,12.93
2022-09-06T00:23:45.387Z,12.93
2022-09-06T00:24:47.039Z,12.94
2022-09-06T00:25:48.636Z,12.94
2022-09-06T00:26:50.555Z,12.94
2022-09-06T00:27:56.024Z,12.93
2022-09-06T00:28:57.596Z,12.93
2022-09-06T00:29:59.563Z,12.91
2022-09-06T00:31:42.854Z,12.89
2022-09-06T00:32:44.464Z,12.86
2022-09-06T00:33:46.279Z,12.87
2022-09-06T00:34:47.894Z,12.86
2022-09-06T00:35:50.162Z,12.85
2022-09-06T00:36:51.759Z,12.84
2022-09-06T00:38:00.332Z,12.83
2022-09-06T00:39:02.653Z,12.81
2022-09-06T00:40:04.699Z,12.81
2022-09-06T00:41:07.399Z,12.80
2022-09-06T00:42:10.171Z,12.77
2022-09-06T00:43:11.881Z,12.77
2022-09-06T00:44:13.893Z,12.76
2022-09-06T00:45:15.758Z,12.75
2022-09-06T00:46:19.021Z,12.74
2022-09-06T00:47:21.068Z,12.73
2022-09-06T00:48:23.099Z,12.71
2022-09-06T00:49:26.469Z,12.69
2022-09-06T00:50:28.949Z,12.65
2022-09-06T00:51:32.999Z,12.65
2022-09-06T00:52:36.546Z,12.65
2022-09-06T00:53:38.668Z,12.64
2022-09-06T00:54:41.953Z,12.64
2022-09-06T00:55:43.892Z,12.63
2022-09-06T00:56:45.884Z,12.63
2022-09-06T00:57:50.976Z,12.62
2022-09-06T00:58:52.949Z,12.61
2022-09-06T00:59:56.891Z,12.60
2022-09-06T01:00:58.449Z,12.60
2022-09-06T01:02:00.262Z,12.60
2022-09-06T01:03:02.014Z,12.60
2022-09-06T01:04:04.194Z,12.61
2022-09-06T01:05:05.960Z,12.61
2022-09-06T01:06:16.852Z,12.61
2022-09-06T01:07:27.295Z,12.59
2022-09-06T01:08:35.373Z,12.59
2022-09-06T01:09:46.552Z,12.60
2022-09-06T01:10:50.900Z,12.60
2022-09-06T01:11:58.596Z,12.59
2022-09-06T01:13:20.015Z,12.60
2022-09-06T01:14:25.013Z,12.59
2022-09-06T01:15:35.064Z,12.59
2022-09-06T01:16:42.890Z,12.58
2022-09-06T01:18:08.189Z,12.55
2022-09-06T01:19:09.695Z,12.54
2022-09-06T01:20:11.183Z,12.53
2022-09-06T01:21:31.416Z,12.53
2022-09-06T01:22:41.475Z,12.51
2022-09-06T01:23:49.065Z,12.51
2022-09-06T01:25:00.075Z,12.53
2022-09-06T01:26:27.200Z,12.54
2022-09-06T01:27:28.916Z,12.54
2022-09-06T01:28:35.385Z,12.55
2022-09-06T01:29:56.185Z,12.55
2022-09-06T01:31:04.720Z,12.57
2022-09-06T01:32:11.860Z,12.56
2022-09-06T01:33:24.335Z,12.55
2022-09-06T01:34:34.780Z,12.56
2022-09-06T01:35:36.376Z,12.57
2022-09-06T01:37:08.279Z,12.57
2022-09-06T01:38:10.249Z,12.57
2022-09-06T01:39:20.204Z,12.57
2022-09-06T01:40:22.008Z,12.57
2022-09-06T01:41:26.818Z,12.56
2022-09-06T01:42:30.778Z,12.58
2022-09-06T01:43:34.664Z,12.58
2022-09-06T01:44:37.531Z,12.59
2022-09-06T01:45:45.270Z,12.59
2022-09-06T01:46:59.874Z,12.58
2022-09-06T01:48:01.372Z,12.57
2022-09-06T01:49:07.795Z,12.56
2022-09-06T01:50:09.438Z,12.55
2022-09-06T01:51:14.452Z,12.54
2022-09-06T01:52:39.481Z,12.53
2022-09-06T01:53:50.994Z,12.53
2022-09-06T01:55:18.923Z,12.54
2022-09-06T01:56:32.550Z,12.50
2022-09-06T01:57:54.448Z,12.54
2022-09-06T01:58:59.334Z,12.54
2022-09-06T02:00:00.941Z,12.53
2022-09-06T02:01:05.545Z,12.54
2022-09-06T02:02:12.145Z,12.56
2022-09-06T02:03:13.839Z,12.55
2022-09-06T02:04:21.434Z,12.55
2022-09-06T02:05:26.888Z,12.56
2022-09-06T02:06:39.382Z,12.55
2022-09-06T02:07:42.984Z,12.58
2022-09-06T02:08:46.849Z,12.58
2022-09-06T02:09:51.860Z,12.57
2022-09-06T02:10:56.699Z,12.57
2022-09-06T02:11:59.392Z,12.57
2022-09-06T02:13:01.949Z,12.57
2022-09-06T02:14:09.078Z,12.56
2022-09-06T02:15:14.476Z,12.56
2022-09-06T02:16:19.588Z,12.55
2022-09-06T02:17:24.426Z,12.54
2022-09-06T02:18:46.368Z,12.51
2022-09-06T02:20:00.816Z,12.50
2022-09-06T02:21:03.643Z,12.47
2022-09-06T02:22:07.910Z,12.45
2022-09-06T02:23:09.714Z,12.43
2022-09-06T02:24:20.326Z,12.36
2022-09-06T02:25:24.912Z,12.33
2022-09-06T02:26:30.236Z,12.30
2022-09-06T02:27:32.205Z,12.28
2022-09-06T02:28:33.964Z,12.23
2022-09-06T02:29:35.666Z,12.22
2022-09-06T02:30:47.030Z,12.18
2022-09-06T02:31:51.970Z,12.16
2022-09-06T02:32:57.215Z,12.12
2022-09-06T02:33:59.124Z,12.09
2022-09-06T02:35:07.315Z,12.06
2022-09-06T02:36:09.127Z,12.03
2022-09-06T02:37:14.973Z,12.00
2022-09-06T02:38:17.450Z,11.94
2022-09-06T02:39:19.099Z,11.92
2022-09-06T02:40:20.719Z,11.89
2022-09-06T02:41:23.654Z,11.87
2022-09-06T02:42:27.999Z,11.84
2022-09-06T02:43:30.049Z,11.82
2022-09-06T02:44:32.406Z,11.81
2022-09-06T02:45:34.229Z,11.79
2022-09-06T02:46:38.794Z,11.78
2022-09-06T02:47:40.383Z,11.76
2022-09-06T02:48:42.257Z,11.75
2022-09-06T02:49:44.642Z,11.74
2022-09-06T02:50:46.266Z,11.74
2022-09-06T02:51:47.936Z,11.73
2022-09-06T02:53:05.911Z,11.72
2022-09-06T02:54:07.469Z,11.71
2022-09-06T02:55:09.289Z,11.70
2022-09-06T02:56:11.101Z,11.69
2022-09-06T02:57:12.688Z,11.69
2022-09-06T02:58:14.760Z,11.68
2022-09-06T02:59:16.314Z,11.68
2022-09-06T03:00:18.136Z,11.68
2022-09-06T03:01:19.822Z,11.68
2022-09-06T03:02:21.697Z,11.67
2022-09-06T03:03:25.500Z,11.68
2022-09-06T03:04:27.365Z,11.68
2022-09-06T03:05:29.476Z,11.68
2022-09-06T03:06:32.006Z,11.67
2022-09-06T03:07:33.708Z,11.67
2022-09-06T03:08:36.503Z,11.67
2022-09-06T03:09:38.204Z,11.68
2022-09-06T03:10:39.898Z,11.68
2022-09-06T03:11:41.875Z,11.67
2022-09-06T03:12:43.934Z,11.66
2022-09-06T03:13:45.521Z,11.66
2022-09-06T03:14:47.425Z,11.65
2022-09-06T03:15:52.611Z,11.65
2022-09-06T03:16:54.237Z,11.64
2022-09-06T03:17:59.158Z,11.63
2022-09-06T03:19:01.037Z,11.62
2022-09-06T03:20:03.546Z,11.61
2022-09-06T03:21:05.300Z,11.60
2022-09-06T03:22:06.820Z,11.60
2022-09-06T03:23:09.084Z,11.58
2022-09-06T03:24:10.674Z,11.57
2022-09-06T03:25:12.252Z,11.56
2022-09-06T03:26:13.804Z,11.54
2022-09-06T03:27:15.386Z,11.53
2022-09-06T03:28:18.123Z,11.50
2022-09-06T03:29:19.774Z,11.51
2022-09-06T03:30:24.040Z,11.50
2022-09-06T03:31:25.759Z,11.47
2022-09-06T03:32:27.587Z,11.45
2022-09-06T03:33:29.233Z,11.47
2022-09-06T03:34:30.922Z,11.46
2022-09-06T03:35:32.897Z,11.45
2022-09-06T03:36:34.644Z,11.44
2022-09-06T03:37:36.423Z,11.44
2022-09-06T03:38:37.988Z,11.44
2022-09-06T03:39:39.664Z,11.44
2022-09-06T03:40:43.325Z,11.39
2022-09-06T03:41:45.302Z,11.44
2022-09-06T03:42:46.954Z,11.43
2022-09-06T03:43:48.609Z,11.43
2022-09-06T03:44:50.553Z,11.41
2022-09-06T03:45:53.402Z,11.39
2022-09-06T03:46:57.670Z,11.38
2022-09-06T03:47:59.309Z,11.36
2022-09-06T03:49:03.574Z,11.35
2022-09-06T03:50:06.282Z,11.34
2022-09-06T03:51:07.883Z,11.32
2022-09-06T03:52:09.566Z,11.30
2022-09-06T03:53:11.325Z,11.28
2022-09-06T03:54:12.864Z,11.26
2022-09-06T03:55:14.681Z,11.25
2022-09-06T03:56:16.365Z,11.23
2022-09-06T03:57:18.096Z,11.19
2022-09-06T03:58:20.668Z,11.20
2022-09-06T03:59:22.384Z,11.18
2022-09-06T04:00:23.930Z,11.18
2022-09-06T04:01:25.769Z,11.15
2022-09-06T04:02:27.566Z,11.16
2022-09-06T04:03:29.424Z,11.15
2022-09-06T04:04:30.964Z,11.15
2022-09-06T04:05:38.322Z,11.15
2022-09-06T04:06:39.937Z,11.15
2022-09-06T04:07:49.272Z,11.13
2022-09-06T04:08:51.759Z,11.15
2022-09-06T04:09:54.455Z,11.15
2022-09-06T04:10:56.869Z,11.16
2022-09-06T04:11:59.700Z,11.15
2022-09-06T04:13:01.586Z,11.16
2022-09-06T04:14:04.817Z,11.16
2022-09-06T04:15:12.499Z,11.16
2022-09-06T04:16:23.401Z,11.14
2022-09-06T04:17:25.857Z,11.17
2022-09-06T04:18:27.748Z,11.19
2022-09-06T04:19:30.755Z,11.19
2022-09-06T04:20:41.474Z,11.20
2022-09-06T04:21:43.048Z,11.20
2022-09-06T04:22:47.140Z,11.19
2022-09-06T04:23:48.929Z,11.22
2022-09-06T04:24:50.520Z,11.22
2022-09-06T04:25:57.658Z,11.23
2022-09-06T04:27:00.473Z,11.24
2022-09-06T04:28:03.128Z,11.22
2022-09-06T04:29:18.617Z,11.23
2022-09-06T04:30:20.569Z,11.24
2022-09-06T04:31:40.282Z,11.23
2022-09-06T04:32:48.031Z,11.24
2022-09-06T04:33:49.634Z,11.24
2022-09-06T04:34:51.435Z,11.25
2022-09-06T04:35:54.431Z,11.25
2022-09-06T04:36:56.749Z,11.27
2022-09-06T04:38:03.645Z,11.27
2022-09-06T04:39:05.665Z,11.29
2022-09-06T04:40:07.535Z,11.27
2022-09-06T04:41:15.859Z,11.28
2022-09-06T04:42:19.975Z,11.28
2022-09-06T04:43:40.970Z,11.28
2022-09-06T04:44:45.672Z,11.26
2022-09-06T04:45:48.050Z,11.28
2022-09-06T04:46:50.738Z,11.28
2022-09-06T04:48:10.558Z,11.28
2022-09-06T04:49:21.530Z,11.29
2022-09-06T04:50:26.493Z,11.30
2022-09-06T04:51:29.594Z,11.30
2022-09-06T04:52:32.934Z,11.30
2022-09-06T04:53:35.622Z,11.30
2022-09-06T04:54:37.950Z,11.30
2022-09-06T04:55:40.934Z,11.30
2022-09-06T04:56:46.578Z,11.29
2022-09-06T04:57:51.225Z,11.29
2022-09-06T04:58:54.797Z,11.30
2022-09-06T04:59:56.492Z,11.30
2022-09-06T05:01:00.033Z,11.29
2022-09-06T05:02:08.023Z,11.30
2022-09-06T05:03:15.919Z,11.31
2022-09-06T05:04:18.782Z,11.32
2022-09-06T05:05:21.879Z,11.34
2022-09-06T05:06:24.449Z,11.34
2022-09-06T05:07:29.404Z,11.35
2022-09-06T05:08:31.198Z,11.36
2022-09-06T05:09:37.419Z,11.36
2022-09-06T05:10:39.203Z,11.37
2022-09-06T05:11:40.970Z,11.39
2022-09-06T05:12:49.834Z,11.40
2022-09-06T05:13:54.455Z,11.40
2022-09-06T05:15:01.657Z,11.42
2022-09-06T05:16:10.781Z,11.44
2022-09-06T05:17:14.215Z,11.45
2022-09-06T05:18:16.358Z,11.47
2022-09-06T05:19:18.714Z,11.49
2022-09-06T05:20:23.988Z,11.51
2022-09-06T05:21:26.675Z,11.54
2022-09-06T05:22:28.992Z,11.57
2022-09-06T05:23:31.726Z,11.58
2022-09-06T05:24:33.640Z,11.60
2022-09-06T05:25:35.811Z,11.63
2022-09-06T05:26:43.611Z,11.65
2022-09-06T05:27:45.393Z,11.68
2022-09-06T05:28:47.074Z,11.71
2022-09-06T05:29:48.726Z,11.74
2022-09-06T05:30:50.486Z,11.77
2022-09-06T05:31:52.821Z,11.80
2022-09-06T05:32:54.543Z,11.83
2022-09-06T05:33:57.234Z,11.86
2022-09-06T05:34:58.885Z,11.88
2022-09-06T05:36:00.540Z,11.92
2022-09-06T05:37:05.016Z,11.95
2022-09-06T05:38:06.725Z,11.97
2022-09-06T05:39:08.576Z,12.00
2022-09-06T05:40:11.334Z,12.03
2022-09-06T05:41:13.226Z,12.06
2022-09-06T05:42:19.045Z,12.08
2022-09-06T05:43:21.289Z,12.13
2022-09-06T05:44:23.006Z,12.16
2022-09-06T05:45:24.690Z,12.19
2022-09-06T05:46:26.511Z,12.22
2022-09-06T05:47:30.572Z,12.25
2022-09-06T05:48:36.806Z,12.28
2022-09-06T05:49:38.972Z,12.29
2022-09-06T05:50:40.727Z,12.33
2022-09-06T05:51:42.375Z,12.35
2022-09-06T05:52:44.168Z,12.36
2022-09-06T05:53:45.729Z,12.40
2022-09-06T05:54:47.449Z,12.44
2022-09-06T05:55:49.014Z,12.46
2022-09-06T05:56:50.720Z,12.48
2022-09-06T05:57:52.327Z,12.51
2022-09-06T05:58:54.174Z,12.54
2022-09-06T05:59:55.724Z,12.57
2022-09-06T06:01:07.617Z,12.60
2022-09-06T06:02:09.202Z,12.64
2022-09-06T06:03:10.880Z,12.67
2022-09-06T06:04:12.415Z,12.70
2022-09-06T06:05:14.400Z,12.74
2022-09-06T06:06:15.954Z,12.77
2022-09-06T06:07:17.683Z,12.80
2022-09-06T06:08:19.374Z,12.83
2022-09-06T06:09:21.059Z,12.85
2022-09-06T06:10:22.977Z,12.89
2022-09-06T06:11:25.553Z,12.92
2022-09-06T06:12:33.902Z,12.96
2022-09-06T06:13:38.949Z,12.99
2022-09-06T06:14:40.615Z,13.02
2022-09-06T06:15:49.899Z,13.06
2022-09-06T06:16:52.197Z,13.11
2022-09-06T06:17:54.053Z,13.16
2022-09-06T06:18:56.135Z,13.20
2022-09-06T06:19:58.930Z,13.25
2022-09-06T06:21:26.759Z,13.29
2022-09-06T06:22:28.441Z,13.38
2022-09-06T06:23:30.287Z,13.43
2022-09-06T06:24:31.984Z,13.49
2022-09-06T06:25:36.161Z,13.55
2022-09-06T06:26:39.794Z,13.58
2022-09-06T06:27:54.410Z,13.67
2022-09-06T06:29:09.214Z,13.72
2022-09-06T06:30:19.877Z,13.78
2022-09-06T06:31:31.548Z,13.84
2022-09-06T06:32:39.959Z,13.88
2022-09-06T06:33:56.534Z,13.97
2022-09-06T06:35:09.164Z,14.04
2022-09-06T06:36:13.830Z,14.10
2022-09-06T06:37:15.660Z,14.14
2022-09-06T06:38:50.255Z,14.21
2022-09-06T06:39:51.909Z,14.28
2022-09-06T06:40:59.455Z,14.32
2022-09-06T06:42:03.916Z,14.41
2022-09-06T06:43:07.617Z,14.46
2022-09-06T06:44:18.609Z,14.51
2022-09-06T06:45:23.773Z,14.58
2022-09-06T06:46:30.884Z,14.63
2022-09-06T06:47:32.863Z,14.69
2022-09-06T06:48:36.815Z,14.77
2022-09-06T06:49:38.480Z,14.92
2022-09-06T06:50:41.074Z,15.11
2022-09-06T06:51:42.761Z,15.35
2022-09-06T06:52:44.393Z,15.55
2022-09-06T06:53:47.146Z,15.76
2022-09-06T06:54:49.584Z,15.93
2022-09-06T06:55:52.096Z,16.08
2022-09-06T06:56:54.863Z,16.22
2022-09-06T06:58:01.165Z,16.33
2022-09-06T06:59:07.612Z,16.43
2022-09-06T07:00:10.620Z,16.51
2022-09-06T07:01:15.954Z,16.62
2022-09-06T07:02:20.306Z,16.74
2022-09-06T07:03:30.839Z,16.90
2022-09-06T07:04:32.804Z,17.09
2022-09-06T07:08:29.102Z,17.71
2022-09-06T07:10:52.314Z,17.96
2022-09-06T07:11:53.964Z,18.07
2022-09-06T07:12:55.580Z,18.12
2022-09-06T07:13:57.242Z,18.26
2022-09-06T07:14:58.798Z,18.33
2022-09-06T07:16:10.686Z,18.37
2022-09-06T07:17:12.231Z,18.55
2022-09-06T07:18:16.759Z,18.66
2022-09-06T07:22:13.568Z,19.18
2022-09-06T07:24:45.357Z,19.46
2022-09-06T07:25:47.266Z,19.56
2022-09-06T07:28:11.961Z,19.84
2022-09-06T07:29:14.283Z,19.85
2022-09-06T07:30:16.980Z,19.90
2022-09-06T07:32:41.898Z,20.26
2022-09-06T07:33:53.828Z,20.29
2022-09-06T07:35:02.890Z,20.39
2022-09-06T07:36:06.998Z,20.52
2022-09-06T07:37:11.363Z,20.64
2022-09-06T07:38:13.231Z,20.74
2022-09-06T07:39:15.094Z,20.79
2022-09-06T07:40:16.794Z,20.81
2022-09-06T07:41:20.608Z,20.91
2022-09-06T07:42:22.313Z,20.93
2022-09-06T07:43:25.967Z,20.96
2022-09-06T07:44:36.606Z,21.07
2022-09-06T07:45:38.221Z,21.17
2022-09-06T07:46:40.298Z,21.27
2022-09-06T07:48:00.346Z,21.39
2022-09-06T07:49:06.440Z,21.55
2022-09-06T07:51:47.905Z,21.85
2022-09-06T07:54:30.285Z,22.11
2022-09-06T07:55:32.900Z,22.26
2022-09-06T07:56:41.349Z,22.40
2022-09-06T07:57:46.124Z,22.51
2022-09-06T07:58:48.280Z,22.65
2022-09-06T07:59:49.783Z,22.80
2022-09-06T08:00:52.477Z,22.92
2022-09-06T08:01:54.244Z,23.04
2022-09-06T08:02:56.244Z,23.13
2022-09-06T08:04:01.079Z,23.17
2022-09-06T08:05:03.461Z,23.13
2022-09-06T08:10:02.868Z,23.17
2022-09-06T08:11:07.152Z,23.30
2022-09-06T08:12:08.951Z,23.39
2022-09-06T08:13:11.095Z,23.48
2022-09-06T08:14:14.748Z,23.60
2022-09-06T08:15:16.454Z,23.72
2022-09-06T08:16:25.349Z,23.81
2022-09-06T08:17:39.161Z,23.92
2022-09-06T08:18:43.129Z,24.06
2022-09-06T08:19:51.172Z,24.20
2022-09-06T08:21:01.778Z,24.33
2022-09-06T08:22:06.240Z,24.44
2022-09-06T08:23:10.923Z,24.57
2022-09-06T08:24:12.943Z,24.62
2022-09-06T08:25:14.529Z,24.57
2022-09-06T08:26:23.364Z,24.54
2022-09-06T08:27:25.207Z,24.54
2022-09-06T08:28:28.826Z,24.56
2022-09-06T08:29:30.566Z,24.64
2022-09-06T08:30:32.539Z,24.76
2022-09-06T08:31:35.655Z,24.86
2022-09-06T08:32:38.594Z,24.94
2022-09-06T08:33:40.887Z,25.02
2022-09-06T08:34:42.742Z,24.96
2022-09-06T08:35:53.532Z,24.97
2022-09-06T08:36:55.123Z,25.00
2022-09-06T08:38:02.293Z,25.07
2022-09-06T08:39:05.009Z,25.16
2022-09-06T08:40:07.046Z,25.27
2022-09-06T08:41:08.708Z,25.41
2022-09-06T08:42:12.534Z,25.54
2022-09-06T08:43:16.093Z,25.63
2022-09-06T08:45:55.848Z,25.93
2022-09-06T08:47:03.258Z,26.12
2022-09-06T08:48:05.052Z,26.31
2022-09-06T08:49:07.105Z,26.44
2022-09-06T08:50:09.851Z,26.55
2022-09-06T08:51:12.961Z,26.64
2022-09-06T08:52:33.183Z,26.73
2022-09-06T08:53:39.146Z,26.82
2022-09-06T08:54:46.320Z,26.92
2022-09-06T08:56:08.415Z,27.01
2022-09-06T08:57:10.151Z,27.06
2022-09-06T08:58:12.820Z,27.05
2022-09-06T08:59:17.141Z,27.13
2022-09-06T09:00:19.215Z,27.20
2022-09-06T09:01:24.874Z,27.32
2022-09-06T09:02:29.998Z,27.30
2022-09-06T09:03:38.871Z,27.22
2022-09-06T09:05:00.907Z,27.22
2022-09-06T09:06:07.726Z,27.22
2022-09-06T09:07:29.291Z,27.23
2022-09-06T09:08:50.471Z,27.26
2022-09-06T09:09:54.416Z,27.39
2022-09-06T09:11:01.890Z,27.47
2022-09-06T09:12:05.226Z,27.42
2022-09-06T09:13:07.740Z,27.41
2022-09-06T09:14:19.563Z,27.40
2022-09-06T09:15:21.896Z,27.24
2022-09-06T09:16:23.549Z,27.22
2022-09-06T09:17:27.552Z,27.20
2022-09-06T09:18:33.729Z,27.26
2022-09-06T09:19:41.451Z,27.32
2022-09-06T09:20:43.229Z,27.38
2022-09-06T09:21:44.771Z,27.30
2022-09-06T09:22:48.890Z,27.20
2022-09-06T09:23:55.075Z,27.24
2022-09-06T09:24:58.696Z,27.28
2022-09-06T09:26:03.605Z,27.31
2022-09-06T09:27:08.173Z,27.38
2022-09-06T09:28:13.840Z,27.47
2022-09-06T09:29:15.566Z,27.53
2022-09-06T09:31:40.631Z,27.55
2022-09-06T09:32:44.479Z,27.51
2022-09-06T09:33:46.307Z,27.55
2022-09-06T09:34:51.219Z,27.56
2022-09-06T09:35:56.494Z,27.58
2022-09-06T09:38:40.142Z,27.69
2022-09-06T09:39:41.942Z,27.81
2022-09-06T09:40:54.326Z,27.96
2022-09-06T09:41:55.911Z,28.07
2022-09-06T09:43:10.547Z,28.21
2022-09-06T09:44:18.837Z,28.39
2022-09-06T09:45:20.520Z,28.58
2022-09-06T09:46:22.572Z,28.77
2022-09-06T09:47:27.412Z,28.99
2022-09-06T09:48:29.483Z,29.16
2022-09-06T09:49:32.226Z,29.29
2022-09-06T09:50:34.602Z,29.23
2022-09-06T09:51:37.819Z,29.13
2022-09-06T09:52:43.543Z,29.03
2022-09-06T09:53:53.051Z,29.00
2022-09-06T09:55:01.079Z,28.89
2022-09-06T09:56:03.145Z,28.78
2022-09-06T09:57:11.708Z,28.69
2022-09-06T09:58:31.978Z,28.57
2022-09-06T09:59:41.625Z,28.37
2022-09-06T10:00:43.569Z,28.21
2022-09-06T10:01:45.334Z,28.11
2022-09-06T10:02:47.160Z,28.04
2022-09-06T10:05:12.729Z,28.07
2022-09-06T10:07:42.931Z,28.15
2022-09-06T10:08:44.686Z,28.31
2022-09-06T10:09:58.339Z,28.36
2022-09-06T10:11:00.405Z,28.27
2022-09-06T10:12:02.470Z,28.29
2022-09-06T10:13:07.059Z,28.26
2022-09-06T10:14:19.469Z,28.31
2022-09-06T10:15:39.357Z,28.34
2022-09-06T10:16:43.334Z,28.34
2022-09-06T10:17:51.220Z,28.29
2022-09-06T10:18:52.881Z,28.21
2022-09-06T10:19:56.545Z,28.19
2022-09-06T10:21:12.332Z,28.15
2022-09-06T10:22:25.728Z,28.14
2022-09-06T10:25:25.735Z,28.15
2022-09-06T10:26:27.458Z,28.06
2022-09-06T10:27:30.582Z,28.02
2022-09-06T10:28:32.321Z,27.99
2022-09-06T10:29:40.132Z,27.90
2022-09-06T10:30:50.391Z,27.94
2022-09-06T10:31:59.207Z,27.99
2022-09-06T10:33:13.194Z,28.09
2022-09-06T10:34:20.821Z,28.02
2022-09-06T10:35:23.693Z,28.01
2022-09-06T10:36:31.680Z,27.96
2022-09-06T10:37:52.286Z,27.98
2022-09-06T10:39:14.164Z,28.12
2022-09-06T10:40:21.923Z,28.15
2022-09-06T10:41:28.401Z,28.08
2022-09-06T10:42:44.707Z,28.07
2022-09-06T10:43:54.422Z,28.17
2022-09-06T10:45:03.030Z,28.16
2022-09-06T10:46:11.235Z,28.15
2022-09-06T10:47:14.309Z,28.18
2022-09-06T10:48:41.544Z,28.09
2022-09-06T10:49:50.690Z,28.02
2022-09-06T10:50:55.227Z,27.98
2022-09-06T10:52:00.521Z,27.93
2022-09-06T10:53:07.149Z,27.96
2022-09-06T10:54:13.130Z,27.93
2022-09-06T10:55:17.242Z,27.86
2022-09-06T10:56:37.149Z,27.84
2022-09-06T10:59:37.423Z,28.10
2022-09-06T11:00:46.110Z,27.99
2022-09-06T11:01:50.469Z,27.91
2022-09-06T11:04:26.453Z,27.79
2022-09-06T11:06:50.043Z,27.70
2022-09-06T11:09:26.877Z,27.57
2022-09-06T11:10:28.445Z,27.52
2022-09-06T11:11:39.004Z,27.48
2022-09-06T11:12:53.775Z,27.47
2022-09-06T11:13:55.355Z,27.43
2022-09-06T11:14:59.285Z,27.49
2022-09-06T11:16:20.005Z,27.60
2022-09-06T11:17:30.914Z,27.71
2022-09-06T11:18:39.356Z,27.79
2022-09-06T11:19:51.024Z,27.74
2022-09-06T11:21:08.197Z,27.84
2022-09-06T11:22:15.480Z,28.07
2022-09-06T11:23:16.994Z,28.19
2022-09-06T11:24:30.689Z,28.18
2022-09-06T11:25:41.147Z,28.03
2022-09-06T11:27:00.365Z,27.84
2022-09-06T11:28:05.329Z,27.63
2022-09-06T11:29:08.984Z,27.58
2022-09-06T11:30:15.045Z,27.56
2022-09-06T11:32:49.994Z,27.68
2022-09-06T11:34:12.454Z,27.88
2022-09-06T11:35:21.894Z,28.05
2022-09-06T11:36:34.432Z,28.22
2022-09-06T11:37:36.201Z,28.31
2022-09-06T11:38:37.808Z,28.42
2022-09-06T11:41:05.588Z,28.74
2022-09-06T11:42:09.751Z,29.00
2022-09-06T11:43:14.213Z,29.07
2022-09-06T11:44:35.874Z,29.15
2022-09-06T11:45:40.361Z,29.21
2022-09-06T11:46:42.444Z,29.37
2022-09-06T11:47:46.775Z,29.53
2022-09-06T11:49:00.460Z,29.61
2022-09-06T11:50:40.555Z,29.64
2022-09-06T11:51:43.434Z,29.84
2022-09-06T11:53:04.274Z,30.03
2022-09-06T11:54:18.022Z,30.15
2022-09-06T11:55:22.943Z,30.25
2022-09-06T11:56:32.927Z,30.41
2022-09-06T11:57:34.790Z,30.43
2022-09-06T11:58:39.620Z,30.51
2022-09-06T11:59:48.679Z,30.66
2022-09-06T12:01:09.375Z,30.83
2022-09-06T12:02:29.901Z,30.95
2022-09-06T12:05:07.078Z,31.26
2022-09-06T12:06:20.529Z,31.28
2022-09-06T12:07:22.134Z,31.33
2022-09-06T12:08:27.627Z,31.41
2022-09-06T12:09:31.078Z,31.33
2022-09-06T12:10:32.586Z,31.22
2022-09-06T12:11:34.363Z,31.18
2022-09-06T12:12:51.914Z,30.91
2022-09-06T12:13:54.268Z,30.85
2022-09-06T12:14:55.937Z,30.90
2022-09-06T12:15:57.704Z,30.96
2022-09-06T12:17:04.457Z,30.99
2022-09-06T12:18:06.053Z,31.11
2022-09-06T12:19:07.824Z,31.14
2022-09-06T12:20:10.755Z,31.16
2022-09-06T12:21:48.453Z,31.14
2022-09-06T12:22:51.069Z,31.28
2022-09-06T12:23:54.115Z,31.38
2022-09-06T12:24:57.148Z,31.51
2022-09-06T12:25:58.770Z,31.65
2022-09-06T12:27:19.410Z,31.77
2022-09-06T12:28:26.127Z,31.96
2022-09-06T12:29:27.906Z,32.16
2022-09-06T12:30:41.648Z,32.27
2022-09-06T12:31:50.403Z,32.39
2022-09-06T12:32:54.834Z,32.52
2022-09-06T12:33:57.709Z,32.48
2022-09-06T12:36:30.498Z,32.48
2022-09-06T12:37:34.780Z,32.36
2022-09-06T12:38:36.429Z,32.22
2022-09-06T12:39:48.360Z,31.99
2022-09-06T12:40:57.739Z,31.84
2022-09-06T12:42:00.724Z,31.78
2022-09-06T12:43:03.380Z,31.68
2022-09-06T12:44:06.958Z,31.62
2022-09-06T12:45:08.534Z,31.66
2022-09-06T12:46:10.241Z,31.58
2022-09-06T12:47:14.442Z,31.40
2022-09-06T12:48:27.788Z,31.32
2022-09-06T12:49:29.671Z,31.39
2022-09-06T12:50:31.462Z,31.50
2022-09-06T12:51:33.357Z,31.53
2022-09-06T12:52:43.125Z,31.68
2022-09-06T12:53:51.672Z,31.91
2022-09-06T12:54:53.404Z,32.00
2022-09-06T12:56:06.088Z,32.13
2022-09-06T12:57:12.215Z,32.02
2022-09-06T12:58:13.859Z,32.05
2022-09-06T12:59:26.593Z,32.06
2022-09-06T13:00:35.125Z,32.06
2022-09-06T13:01:44.394Z,32.01
2022-09-06T13:02:52.478Z,31.88
2022-09-06T13:04:02.244Z,31.89
2022-09-06T13:05:06.311Z,31.88
2022-09-06T13:06:18.096Z,31.89
2022-09-06T13:07:21.647Z,31.80
2022-09-06T13:08:28.959Z,31.70
2022-09-06T13:09:31.206Z,31.61
2022-09-06T13:10:34.009Z,31.58
2022-09-06T13:11:38.050Z,31.67
2022-09-06T13:12:42.343Z,31.88
2022-09-06T13:13:48.344Z,32.12
2022-09-06T13:14:52.090Z,32.29
2022-09-06T13:15:53.910Z,32.44
2022-09-06T13:16:59.570Z,32.50
2022-09-06T13:18:26.254Z,32.63
2022-09-06T13:19:38.837Z,32.85
2022-09-06T13:20:40.584Z,32.93
2022-09-06T13:21:43.544Z,32.96
2022-09-06T13:22:47.259Z,32.85
2022-09-06T13:23:52.362Z,32.75
2022-09-06T13:24:55.611Z,32.78
2022-09-06T13:25:57.327Z,32.82
2022-09-06T13:26:59.032Z,32.87
2022-09-06T13:28:01.848Z,32.93
2022-09-06T13:29:30.137Z,32.91
2022-09-06T13:30:49.066Z,33.07
2022-09-06T13:31:52.988Z,33.08
2022-09-06T13:32:57.694Z,32.94
2022-09-06T13:34:01.209Z,32.87
2022-09-06T13:35:04.111Z,32.75
2022-09-06T13:36:08.165Z,32.58
2022-09-06T13:37:10.283Z,32.38
2022-09-06T13:38:28.676Z,32.12
2022-09-06T13:39:48.796Z,31.86
2022-09-06T13:42:33.932Z,31.47
2022-09-06T13:43:45.640Z,31.21
2022-09-06T13:44:47.293Z,31.05
2022-09-06T13:45:49.073Z,30.91
2022-09-06T13:46:54.827Z,30.83
2022-09-06T13:48:13.017Z,30.64
2022-09-06T13:49:19.103Z,30.48
2022-09-06T13:50:23.610Z,30.33
2022-09-06T13:51:29.333Z,30.18
2022-09-06T13:52:30.931Z,30.23
2022-09-06T13:53:33.384Z,30.35
2022-09-06T13:54:35.163Z,30.36
2022-09-06T13:55:36.961Z,30.37
2022-09-06T13:56:39.092Z,30.43
2022-09-06T13:57:40.840Z,30.39
2022-09-06T13:58:44.713Z,30.45
2022-09-06T13:59:46.441Z,30.58
2022-09-06T14:00:51.087Z,30.83
2022-09-06T14:01:58.514Z,31.01
2022-09-06T14:03:00.598Z,31.19
2022-09-06T14:04:05.006Z,31.33
2022-09-06T14:05:07.041Z,31.43
2022-09-06T14:06:09.435Z,31.42
2022-09-06T14:07:11.564Z,31.31
2022-09-06T14:08:13.172Z,31.21
2022-09-06T14:09:14.669Z,31.18
2022-09-06T14:10:18.623Z,31.14
2022-09-06T14:11:20.221Z,31.11
2022-09-06T14:12:21.895Z,31.08
2022-09-06T14:13:25.333Z,31.03
2022-09-06T14:14:26.946Z,30.97
2022-09-06T14:15:28.697Z,30.96
2022-09-06T14:16:31.068Z,31.00
2022-09-06T14:17:32.704Z,31.05
2022-09-06T14:18:36.612Z,31.09
2022-09-06T14:19:38.361Z,31.01
2022-09-06T14:20:40.394Z,30.96
2022-09-06T14:21:42.883Z,30.96
2022-09-06T14:22:44.511Z,30.96
2022-09-06T14:23:50.487Z,30.90
2022-09-06T14:24:52.168Z,30.82
2022-09-06T14:26:00.728Z,30.82
2022-09-06T14:27:03.861Z,30.79
2022-09-06T14:28:05.512Z,30.77
2022-09-06T14:29:07.764Z,30.81
2022-09-06T14:30:09.798Z,30.89
2022-09-06T14:31:16.207Z,30.98
2022-09-06T14:32:22.570Z,31.01
2022-09-06T14:33:24.682Z,30.97
2022-09-06T14:34:27.179Z,30.92
2022-09-06T14:35:30.245Z,30.87
2022-09-06T14:36:32.836Z,30.83
2022-09-06T14:37:34.581Z,30.68
2022-09-06T14:38:41.311Z,30.53
2022-09-06T14:39:45.561Z,30.43
2022-09-06T14:40:47.196Z,30.41
2022-09-06T14:41:49.030Z,30.39
2022-09-06T14:42:50.830Z,30.31
2022-09-06T14:43:54.340Z,30.26